createdAt,value
2022-12-06T00:00:12.791Z,85.66
2022-12-06T00:02:40.441Z,86.32
2022-12-06T00:05:08.957Z,86.03
2022-12-06T00:07:36.620Z,85.31
2022-12-06T00:10:04.840Z,85.12
2022-12-06T00:12:32.574Z,84.83
2022-12-06T00:15:01.233Z,84.37
2022-12-06T00:17:30.170Z,84.69
2022-12-06T00:19:58.225Z,84.57
2022-12-06T00:22:25.930Z,83.88
2022-12-06T00:24:53.541Z,84.58
2022-12-06T00:27:21.150Z,85.07
2022-12-06T00:29:50.109Z,86.07
2022-12-06T00:32:19.680Z,86.04
2022-12-06T00:34:48.955Z,86.66
2022-12-06T00:37:17.586Z,87.65
2022-12-06T00:39:45.180Z,87.49
2022-12-06T00:42:12.727Z,86.69
2022-12-06T00:44:40.272Z,85.07
2022-12-06T00:47:07.923Z,84.73
2022-12-06T00:49:36.566Z,85.17
2022-12-06T00:52:05.854Z,85.30
2022-12-06T00:54:33.416Z,85.42
2022-12-06T00:57:00.964Z,85.06
2022-12-06T00:59:29.689Z,84.47
2022-12-06T01:01:57.489Z,84.78
2022-12-06T01:04:25.061Z,85.67
2022-12-06T01:06:52.820Z,85.49
2022-12-06T01:09:21.733Z,85.79
2022-12-06T01:11:49.603Z,85.76
2022-12-06T01:14:17.207Z,87.12
2022-12-06T01:16:44.844Z,87.64
2022-12-06T01:19:13.480Z,86.25
2022-12-06T01:21:41.025Z,86.06
2022-12-06T01:24:08.915Z,85.64
2022-12-06T01:26:37.908Z,86.63
2022-12-06T01:29:05.964Z,87.06
2022-12-06T01:31:38.738Z,86.62
2022-12-06T01:34:07.966Z,84.37
2022-12-06T01:36:35.616Z,83.72
2022-12-06T01:39:07.122Z,85.05
2022-12-06T01:41:34.947Z,83.67
2022-12-06T01:44:04.994Z,84.57
2022-12-06T01:46:35.762Z,85.10
2022-12-06T01:49:12.876Z,83.92
2022-12-06T01:51:45.048Z,84.85
2022-12-06T01:54:14.894Z,84.91
2022-12-06T01:56:42.939Z,83.93
2022-12-06T01:59:12.668Z,83.31
2022-12-06T02:01:41.242Z,84.03
2022-12-06T02:04:09.755Z,85.40
2022-12-06T02:06:39.888Z,83.84
2022-12-06T02:09:11.863Z,84.18
2022-12-06T02:11:41.481Z,83.21
2022-12-06T02:14:13.533Z,83.54
2022-12-06T02:16:53.915Z,83.76
2022-12-06T02:19:42.974Z,84.50
2022-12-06T02:22:18.082Z,84.31
2022-12-06T02:25:07.522Z,83.70
2022-12-06T02:28:05.334Z,83.11
2022-12-06T02:30:43.319Z,83.44
2022-12-06T02:33:19.897Z,83.92
2022-12-06T02:35:51.807Z,83.66
2022-12-06T02:38:26.447Z,84.00
2022-12-06T02:40:58.442Z,83.98
2022-12-06T02:43:33.104Z,84.42
2022-12-06T02:46:04.971Z,84.11
2022-12-06T02:48:34.355Z,84.23
2022-12-06T02:51:05.486Z,84.93
2022-12-06T02:53:36.360Z,84.54
2022-12-06T02:56:04.391Z,84.17
2022-12-06T02:58:35.672Z,84.74
2022-12-06T03:01:07.766Z,84.72
2022-12-06T03:03:57.195Z,83.95
2022-12-06T03:06:45.036Z,84.00
2022-12-06T03:09:24.286Z,83.72
2022-12-06T03:11:58.809Z,83.82
2022-12-06T03:14:29.452Z,84.30
2022-12-06T03:17:08.226Z,84.88
2022-12-06T03:19:38.027Z,84.09
2022-12-06T03:22:09.539Z,84.16
2022-12-06T03:24:40.054Z,83.71
2022-12-06T03:27:12.136Z,83.84
2022-12-06T03:29:44.737Z,83.57
2022-12-06T03:32:17.950Z,82.74
2022-12-06T03:34:49.826Z,83.85
2022-12-06T03:37:22.557Z,84.04
2022-12-06T03:39:59.782Z,84.46
2022-12-06T03:42:28.498Z,84.33
2022-12-06T03:44:56.341Z,84.85
2022-12-06T03:47:34.949Z,84.32
2022-12-06T03:50:06.298Z,84.25
2022-12-06T03:52:34.779Z,84.85
2022-12-06T03:55:02.384Z,84.55
2022-12-06T03:57:29.974Z,84.26
2022-12-06T03:59:57.705Z,83.25
2022-12-06T04:02:26.834Z,83.92
2022-12-06T04:04:54.418Z,83.27
2022-12-06T04:07:21.966Z,85.60
2022-12-06T04:10:03.012Z,84.04
2022-12-06T04:12:49.633Z,84.00
2022-12-06T04:15:17.369Z,82.60
2022-12-06T04:18:04.433Z,83.15
2022-12-06T04:20:52.653Z,83.37
2022-12-06T04:23:19.993Z,84.44
2022-12-06T04:25:47.760Z,84.66
2022-12-06T04:28:33.466Z,86.04
2022-12-06T04:31:22.230Z,84.85
2022-12-06T04:34:09.543Z,84.43
2022-12-06T04:36:55.319Z,85.50
2022-12-06T04:39:23.190Z,83.89
2022-12-06T04:42:08.261Z,84.22
2022-12-06T04:44:36.029Z,84.62
2022-12-06T04:47:03.792Z,85.18
2022-12-06T04:49:33.132Z,84.97
2022-12-06T04:52:00.886Z,85.19
2022-12-06T04:54:30.065Z,84.67
2022-12-06T04:56:58.005Z,83.61
2022-12-06T04:59:26.000Z,85.05
2022-12-06T05:01:54.039Z,84.26
2022-12-06T05:04:22.803Z,84.22
2022-12-06T05:06:52.452Z,84.12
2022-12-06T05:09:20.221Z,84.26
2022-12-06T05:11:47.829Z,84.91
2022-12-06T05:14:15.454Z,84.46
2022-12-06T05:16:43.201Z,85.11
2022-12-06T05:19:11.347Z,85.48
2022-12-06T05:21:39.446Z,85.32
2022-12-06T05:24:09.233Z,84.45
2022-12-06T05:26:37.075Z,84.22
2022-12-06T05:29:05.116Z,85.15
2022-12-06T05:31:32.777Z,84.86
2022-12-06T05:34:00.408Z,84.65
2022-12-06T05:36:28.723Z,83.54
2022-12-06T05:38:57.559Z,83.77
2022-12-06T05:41:26.654Z,83.01
2022-12-06T05:43:54.246Z,83.68
2022-12-06T05:46:23.119Z,83.48
2022-12-06T05:48:50.860Z,83.25
2022-12-06T05:51:18.472Z,83.74
2022-12-06T05:53:46.015Z,83.86
2022-12-06T05:56:14.567Z,84.38
2022-12-06T05:58:44.187Z,83.82
2022-12-06T06:01:12.119Z,83.24
2022-12-06T06:03:46.948Z,83.86
2022-12-06T06:06:15.565Z,83.70
2022-12-06T06:08:43.658Z,84.29
2022-12-06T06:11:11.312Z,84.34
2022-12-06T06:13:39.158Z,84.91
2022-12-06T06:16:09.009Z,85.39
2022-12-06T06:18:36.897Z,84.84
2022-12-06T06:21:04.989Z,85.03
2022-12-06T06:23:33.040Z,85.85
2022-12-06T06:26:00.747Z,85.06
2022-12-06T06:28:28.342Z,85.18
2022-12-06T06:30:55.935Z,85.83
2022-12-06T06:33:24.861Z,85.71
2022-12-06T06:35:52.440Z,85.84
2022-12-06T06:38:20.029Z,85.46
2022-12-06T06:40:47.769Z,85.38
2022-12-06T06:43:24.471Z,85.50
2022-12-06T06:45:58.120Z,85.82
2022-12-06T06:48:28.442Z,85.40
2022-12-06T06:50:57.823Z,86.01
2022-12-06T06:53:27.310Z,85.51
2022-12-06T06:55:54.959Z,85.85
2022-12-06T06:58:22.511Z,85.96
2022-12-06T07:00:55.034Z,86.24
2022-12-06T07:03:23.671Z,85.41
2022-12-06T07:05:57.245Z,85.69
2022-12-06T07:08:25.924Z,85.57
2022-12-06T07:10:54.458Z,85.55
2022-12-06T07:13:23.191Z,85.85
2022-12-06T07:15:51.395Z,86.05
2022-12-06T07:18:19.804Z,86.17
2022-12-06T07:20:48.951Z,85.92
2022-12-06T07:23:17.907Z,85.55
2022-12-06T07:25:45.460Z,85.50
2022-12-06T07:28:13.273Z,85.58
2022-12-06T07:30:40.893Z,85.53
2022-12-06T07:33:08.629Z,85.46
2022-12-06T07:36:10.366Z,85.05
2022-12-06T07:38:25.303Z,85.06
2022-12-06T07:41:08.219Z,85.00
2022-12-06T07:43:53.689Z,84.87
2022-12-06T07:46:21.299Z,84.92
2022-12-06T07:48:48.954Z,84.92
2022-12-06T07:51:16.618Z,85.19
2022-12-06T07:53:45.524Z,85.25
2022-12-06T07:56:13.093Z,84.66
2022-12-06T07:58:40.650Z,85.10
2022-12-06T08:01:08.731Z,85.02
2022-12-06T08:03:36.456Z,85.00
2022-12-06T08:06:04.293Z,86.03
2022-12-06T08:08:32.773Z,85.61
2022-12-06T08:11:02.237Z,85.38
2022-12-06T08:13:30.546Z,85.95
2022-12-06T08:15:58.231Z,85.98
2022-12-06T08:18:26.618Z,85.98
2022-12-06T08:20:54.189Z,85.76
2022-12-06T08:23:21.750Z,85.51
2022-12-06T08:25:57.965Z,85.16
2022-12-06T08:28:27.262Z,85.31
2022-12-06T08:30:58.306Z,85.40
2022-12-06T08:33:30.534Z,85.74
2022-12-06T08:35:58.126Z,85.87
2022-12-06T08:38:25.843Z,85.91
2022-12-06T08:40:53.398Z,86.01
2022-12-06T08:43:20.996Z,86.16
2022-12-06T08:45:52.982Z,86.16
2022-12-06T08:48:21.315Z,85.25
2022-12-06T08:50:48.912Z,85.03
2022-12-06T08:53:16.581Z,84.64
2022-12-06T08:55:58.722Z,83.88
2022-12-06T08:58:29.854Z,84.79
2022-12-06T09:00:58.853Z,83.81
2022-12-06T09:03:26.552Z,84.08
2022-12-06T09:05:54.156Z,83.68
2022-12-06T09:08:21.795Z,83.32
2022-12-06T09:10:49.453Z,83.42
2022-12-06T09:13:17.050Z,83.30
2022-12-06T09:15:44.634Z,83.26
2022-12-06T09:18:13.569Z,82.96
2022-12-06T09:20:41.247Z,82.67
2022-12-06T09:23:09.928Z,83.31
2022-12-06T09:25:38.636Z,82.49
2022-12-06T09:28:06.544Z,83.02
2022-12-06T09:30:34.580Z,82.95
2022-12-06T09:33:02.191Z,82.61
2022-12-06T09:35:32.415Z,83.83
2022-12-06T09:38:00.933Z,83.44
2022-12-06T09:40:35.377Z,83.27
2022-12-06T09:43:21.442Z,83.22
2022-12-06T09:46:10.213Z,83.54
2022-12-06T09:49:05.346Z,83.21
2022-12-06T09:51:51.386Z,82.76
2022-12-06T09:54:35.255Z,83.32
2022-12-06T09:57:09.174Z,82.24
2022-12-06T09:59:46.088Z,81.50
2022-12-06T10:02:30.566Z,81.74
2022-12-06T10:05:09.507Z,80.96
2022-12-06T10:07:49.552Z,81.96
2022-12-06T10:10:25.805Z,81.73
2022-12-06T10:13:04.232Z,82.30
2022-12-06T10:15:45.737Z,82.45
2022-12-06T10:18:38.999Z,81.30
2022-12-06T10:21:17.431Z,81.04
2022-12-06T10:24:02.187Z,81.29
2022-12-06T10:26:36.026Z,80.87
2022-12-06T10:29:18.081Z,80.51
2022-12-06T10:31:56.089Z,80.37
2022-12-06T10:34:38.002Z,79.28
2022-12-06T10:37:16.047Z,79.46
2022-12-06T10:39:52.232Z,80.60
2022-12-06T10:42:31.524Z,80.44
2022-12-06T10:45:25.084Z,80.42
2022-12-06T10:47:54.616Z,80.59
2022-12-06T10:50:26.711Z,79.96
2022-12-06T10:53:02.275Z,81.72
2022-12-06T10:55:37.456Z,79.71
2022-12-06T10:58:15.244Z,78.95
2022-12-06T11:00:52.443Z,78.72
2022-12-06T11:03:26.450Z,77.73
2022-12-06T11:05:57.375Z,79.00
2022-12-06T11:08:29.551Z,78.15
2022-12-06T11:11:00.507Z,78.38
2022-12-06T11:13:36.261Z,78.00
2022-12-06T11:16:10.306Z,78.55
2022-12-06T11:18:38.611Z,77.99
2022-12-06T11:21:16.738Z,78.34
2022-12-06T11:23:53.192Z,78.77
2022-12-06T11:26:31.171Z,78.40
2022-12-06T11:29:05.740Z,78.26
2022-12-06T11:31:37.962Z,78.72
2022-12-06T11:34:10.342Z,77.86
2022-12-06T11:36:38.562Z,77.55
2022-12-06T11:39:06.354Z,78.24
2022-12-06T11:41:38.067Z,77.18
2022-12-06T11:44:06.811Z,77.27
2022-12-06T11:46:34.546Z,77.90
2022-12-06T11:49:15.006Z,77.80
2022-12-06T11:51:42.555Z,76.96
2022-12-06T11:54:24.369Z,76.64
2022-12-06T11:56:55.023Z,77.15
2022-12-06T11:59:25.891Z,78.15
2022-12-06T12:01:57.175Z,76.84
2022-12-06T12:04:44.118Z,77.37
2022-12-06T12:07:16.912Z,77.43
2022-12-06T12:09:54.350Z,76.92
2022-12-06T12:12:25.390Z,76.68
2022-12-06T12:14:57.998Z,76.74
2022-12-06T12:17:31.216Z,77.99
2022-12-06T12:20:01.754Z,77.47
2022-12-06T12:22:35.901Z,76.22
2022-12-06T12:25:22.556Z,76.33
2022-12-06T12:27:53.085Z,76.84
2022-12-06T12:30:33.529Z,76.29
2022-12-06T12:33:20.874Z,77.25
2022-12-06T12:35:51.142Z,75.37
2022-12-06T12:38:27.440Z,77.39
2022-12-06T12:40:57.997Z,77.67
2022-12-06T12:43:30.928Z,76.75
2022-12-06T12:46:13.976Z,75.60
2022-12-06T12:48:43.036Z,76.20
2022-12-06T12:51:28.334Z,74.95
2022-12-06T12:53:59.296Z,76.83
2022-12-06T12:56:27.185Z,75.85
2022-12-06T12:58:57.861Z,75.80
2022-12-06T13:01:41.943Z,77.79
2022-12-06T13:04:18.224Z,76.49
2022-12-06T13:06:50.731Z,74.28
2022-12-06T13:09:25.494Z,75.50
2022-12-06T13:11:58.304Z,77.47
2022-12-06T13:14:29.271Z,75.75
2022-12-06T13:17:00.337Z,76.95
2022-12-06T13:19:35.161Z,75.93
2022-12-06T13:22:05.875Z,75.66
2022-12-06T13:24:37.415Z,75.43
2022-12-06T13:27:11.917Z,75.33
2022-12-06T13:29:44.937Z,76.15
2022-12-06T13:32:17.261Z,77.00
2022-12-06T13:34:50.304Z,75.70
2022-12-06T13:37:35.635Z,75.70
2022-12-06T13:40:06.087Z,75.60
2022-12-06T13:42:47.411Z,74.90
2022-12-06T13:45:42.636Z,75.26
2022-12-06T13:48:37.553Z,75.77
2022-12-06T13:51:10.093Z,75.41
2022-12-06T13:54:16.335Z,76.26
2022-12-06T13:56:44.191Z,77.50
2022-12-06T13:59:34.408Z,76.99
2022-12-06T14:02:04.802Z,76.98
2022-12-06T14:07:04.477Z,77.16
2022-12-06T14:09:42.073Z,77.54
2022-12-06T14:12:17.589Z,77.43
2022-12-06T14:14:45.447Z,77.17
2022-12-06T14:17:38.014Z,77.78
2022-12-06T14:20:19.374Z,77.72
2022-12-06T14:22:48.593Z,77.68
2022-12-06T14:25:20.774Z,77.85
2022-12-06T14:27:50.585Z,77.63
2022-12-06T14:30:25.633Z,77.90
2022-12-06T14:32:56.985Z,78.44
2022-12-06T14:35:26.476Z,78.07
2022-12-06T14:37:57.230Z,77.07
2022-12-06T14:40:45.910Z,78.45
2022-12-06T14:43:17.158Z,77.63
2022-12-06T14:45:46.855Z,77.77
2022-12-06T14:48:16.748Z,77.82
2022-12-06T14:50:48.592Z,78.17
2022-12-06T14:53:28.915Z,77.84
2022-12-06T14:55:58.130Z,77.66
2022-12-06T14:58:28.568Z,78.30
2022-12-06T15:01:00.107Z,77.64
2022-12-06T15:03:32.513Z,77.55
2022-12-06T15:06:13.317Z,77.52
2022-12-06T15:08:42.546Z,77.77
2022-12-06T15:11:50.190Z,77.71
2022-12-06T15:14:19.924Z,77.22
2022-12-06T15:16:58.395Z,77.78
2022-12-06T15:19:28.833Z,78.03
2022-12-06T15:21:57.460Z,77.68
2022-12-06T15:24:27.237Z,77.20
2022-12-06T15:26:55.462Z,76.90
2022-12-06T15:29:23.527Z,77.38
2022-12-06T15:31:53.207Z,77.79
2022-12-06T15:34:28.860Z,78.66
2022-12-06T15:37:22.247Z,77.76
2022-12-06T15:39:45.853Z,77.00
2022-12-06T15:42:18.538Z,78.17
2022-12-06T15:44:49.420Z,78.96
2022-12-06T15:47:17.207Z,78.94
2022-12-06T15:49:46.365Z,78.39
2022-12-06T15:52:17.065Z,78.72
2022-12-06T15:54:44.837Z,78.07
2022-12-06T15:57:12.485Z,79.57
2022-12-06T15:59:40.100Z,79.28
2022-12-06T16:02:15.225Z,78.78
2022-12-06T16:04:43.175Z,78.74
2022-12-06T16:07:13.409Z,79.36
2022-12-06T16:09:42.188Z,80.02
2022-12-06T16:12:10.746Z,78.41
2022-12-06T16:14:38.281Z,79.15
2022-12-06T16:17:05.873Z,79.52
2022-12-06T16:19:47.348Z,78.60
2022-12-06T16:22:16.304Z,79.33
2022-12-06T16:24:42.921Z,79.59
2022-12-06T16:27:10.680Z,79.52
2022-12-06T16:29:39.351Z,81.08
2022-12-06T16:32:07.464Z,79.77
2022-12-06T16:34:36.156Z,80.70
2022-12-06T16:37:06.962Z,80.59
2022-12-06T16:39:36.162Z,80.62
2022-12-06T16:42:06.767Z,80.78
2022-12-06T16:44:50.677Z,81.25
2022-12-06T16:47:18.406Z,81.03
2022-12-06T16:49:48.048Z,81.67
2022-12-06T16:52:16.675Z,80.96
2022-12-06T16:54:46.843Z,81.23
2022-12-06T16:57:15.250Z,81.09
2022-12-06T16:59:43.416Z,81.52
2022-12-06T17:02:25.050Z,81.87
2022-12-06T17:04:52.628Z,82.03
2022-12-06T17:07:20.168Z,82.51
2022-12-06T17:09:49.170Z,82.66
2022-12-06T17:12:16.733Z,82.26
2022-12-06T17:14:44.727Z,82.86
2022-12-06T17:17:15.133Z,82.94
2022-12-06T17:19:43.397Z,83.15
2022-12-06T17:22:12.045Z,83.07
2022-12-06T17:24:40.033Z,83.81
2022-12-06T17:27:09.961Z,83.81
2022-12-06T17:29:38.283Z,83.77
2022-12-06T17:32:06.630Z,83.68
2022-12-06T17:34:34.328Z,83.73
2022-12-06T17:37:02.135Z,84.02
2022-12-06T17:39:29.721Z,83.14
2022-12-06T17:42:15.165Z,83.19
2022-12-06T17:44:44.102Z,83.33
2022-12-06T17:47:12.271Z,83.37
2022-12-06T17:49:39.848Z,83.71
2022-12-06T17:52:07.484Z,83.75
2022-12-06T17:54:35.207Z,83.66
2022-12-06T17:57:03.230Z,83.19
2022-12-06T17:59:32.881Z,83.07
2022-12-06T18:02:18.741Z,82.66
2022-12-06T18:04:47.730Z,83.21
2022-12-06T18:07:16.305Z,83.12
2022-12-06T18:09:43.923Z,83.66
2022-12-06T18:12:13.707Z,83.49
2022-12-06T18:14:41.398Z,83.62
2022-12-06T18:17:10.396Z,83.91
2022-12-06T18:19:37.994Z,83.52
2022-12-06T18:22:05.552Z,83.54
2022-12-06T18:24:35.869Z,83.46
2022-12-06T18:27:04.577Z,83.75
2022-12-06T18:29:32.288Z,83.54
2022-12-06T18:32:00.909Z,83.21
2022-12-06T18:34:30.048Z,83.28
2022-12-06T18:36:57.757Z,83.46
2022-12-06T18:39:25.437Z,83.40
2022-12-06T18:41:55.116Z,83.46
2022-12-06T18:44:23.487Z,83.31
2022-12-06T18:46:51.392Z,83.14
2022-12-06T18:49:19.214Z,82.66
2022-12-06T18:51:48.155Z,82.79
2022-12-06T18:54:15.724Z,83.42
2022-12-06T18:56:43.628Z,83.30
2022-12-06T18:59:12.228Z,83.18
2022-12-06T19:01:41.067Z,83.40
2022-12-06T19:04:11.380Z,83.47
2022-12-06T19:06:39.666Z,84.19
2022-12-06T19:09:10.293Z,83.36
2022-12-06T19:11:39.467Z,84.54
2022-12-06T19:14:08.290Z,84.48
2022-12-06T19:16:38.999Z,84.76
2022-12-06T19:19:15.558Z,83.91
2022-12-06T19:21:44.470Z,83.79
2022-12-06T19:24:15.702Z,83.78
2022-12-06T19:26:44.155Z,83.77
2022-12-06T19:29:12.000Z,83.89
2022-12-06T19:31:39.770Z,83.89
2022-12-06T19:34:07.893Z,84.01
2022-12-06T19:36:35.690Z,83.86
2022-12-06T19:39:06.013Z,83.74
2022-12-06T19:41:56.223Z,83.40
2022-12-06T19:44:23.443Z,83.73
2022-12-06T19:46:51.575Z,84.02
2022-12-06T19:49:21.434Z,84.33
2022-12-06T19:51:50.586Z,84.21
2022-12-06T19:54:20.969Z,83.63
2022-12-06T19:56:51.356Z,83.98
2022-12-06T19:59:19.533Z,84.27
2022-12-06T20:01:48.808Z,83.59
2022-12-06T20:04:18.506Z,84.60
2022-12-06T20:06:46.844Z,83.78
2022-12-06T20:09:15.170Z,84.36
2022-12-06T20:12:01.315Z,84.74
2022-12-06T20:14:33.592Z,84.17
2022-12-06T20:17:01.690Z,83.77
2022-12-06T20:19:29.608Z,83.92
2022-12-06T20:21:57.602Z,83.70
2022-12-06T20:24:25.558Z,83.54
2022-12-06T20:26:55.717Z,84.12
2022-12-06T20:29:23.897Z,84.05
2022-12-06T20:31:53.102Z,84.00
2022-12-06T20:34:20.988Z,84.13
2022-12-06T20:36:48.721Z,84.32
2022-12-06T20:39:21.518Z,84.40
2022-12-06T20:41:51.650Z,83.35
2022-12-06T20:44:19.936Z,83.70
2022-12-06T20:46:49.667Z,83.70
2022-12-06T20:49:19.070Z,84.07
2022-12-06T20:51:52.562Z,84.14
2022-12-06T20:54:22.174Z,83.67
2022-12-06T20:56:51.746Z,83.68
2022-12-06T20:59:20.359Z,83.76
2022-12-06T21:01:48.448Z,83.93
2022-12-06T21:04:18.217Z,83.71
2022-12-06T21:06:45.853Z,83.92
2022-12-06T21:09:13.454Z,84.00
2022-12-06T21:11:42.100Z,84.43
2022-12-06T21:14:12.292Z,84.57
2022-12-06T21:16:41.896Z,84.55
2022-12-06T21:19:12.656Z,84.51
2022-12-06T21:21:44.715Z,84.18
2022-12-06T21:24:16.056Z,84.43
2022-12-06T21:26:43.995Z,84.43
2022-12-06T21:29:15.772Z,84.74
2022-12-06T21:31:43.576Z,85.00
2022-12-06T21:34:11.431Z,85.18
2022-12-06T21:36:39.438Z,84.96
2022-12-06T21:39:08.626Z,84.86
2022-12-06T21:41:36.307Z,84.92
2022-12-06T21:44:03.956Z,84.90
2022-12-06T21:46:31.696Z,84.99
2022-12-06T21:49:01.975Z,85.02
2022-12-06T21:51:32.313Z,85.40
2022-12-06T21:54:00.224Z,84.96
2022-12-06T21:56:31.231Z,85.05
2022-12-06T21:59:01.011Z,84.64
2022-12-06T22:01:31.130Z,85.27
2022-12-06T22:04:02.045Z,84.92
2022-12-06T22:06:31.411Z,84.49
2022-12-06T22:09:01.321Z,83.90
2022-12-06T22:11:30.663Z,84.18
2022-12-06T22:13:59.044Z,83.99
2022-12-06T22:16:27.137Z,83.88
2022-12-06T22:18:55.329Z,83.74
2022-12-06T22:21:25.635Z,84.37
2022-12-06T22:23:54.213Z,84.46
2022-12-06T22:26:23.582Z,83.65
2022-12-06T22:28:52.525Z,81.66
2022-12-06T22:31:22.030Z,82.08
2022-12-06T22:33:50.729Z,81.46
2022-12-06T22:36:20.224Z,81.34
2022-12-06T22:38:49.588Z,81.61
2022-12-06T22:41:18.075Z,81.91
2022-12-06T22:43:46.212Z,81.72
2022-12-06T22:46:17.002Z,82.66
2022-12-06T22:48:44.931Z,83.21
2022-12-06T22:51:14.756Z,83.18
2022-12-06T22:53:43.948Z,82.74
2022-12-06T22:56:11.945Z,81.38
2022-12-06T22:58:40.904Z,82.54
2022-12-06T23:01:15.872Z,84.11
2022-12-06T23:03:47.373Z,81.34
2022-12-06T23:06:16.006Z,81.42
2022-12-06T23:08:44.110Z,81.07
2022-12-06T23:11:13.827Z,81.28
2022-12-06T23:13:42.404Z,81.20
2022-12-06T23:16:13.794Z,81.79
2022-12-06T23:18:41.784Z,82.30
2022-12-06T23:21:14.806Z,82.48
2022-12-06T23:23:45.704Z,82.55
2022-12-06T23:26:16.008Z,82.90
2022-12-06T23:28:45.335Z,83.35
2022-12-06T23:31:14.831Z,83.69
2022-12-06T23:33:43.621Z,83.72
2022-12-06T23:36:15.232Z,83.22
2022-12-06T23:38:43.383Z,83.85
2022-12-06T23:41:12.883Z,84.47
2022-12-06T23:43:41.408Z,84.45
2022-12-06T23:46:10.923Z,83.90
2022-12-06T23:48:38.977Z,83.73
2022-12-06T23:51:08.469Z,84.05
2022-12-06T23:53:37.858Z,84.19
2022-12-06T23:56:07.794Z,83.78
2022-12-06T23:58:36.350Z,83.40
